createdAt,value
2022-12-23T00:00:21.255Z,99951.09
2022-12-23T00:02:48.996Z,99943.75
2022-12-23T00:05:16.845Z,99944.16
2022-12-23T00:07:45.275Z,99944.16
2022-12-23T00:10:14.208Z,99934.75
2022-12-23T00:12:59.392Z,99941.91
2022-12-23T00:15:26.931Z,99952.72
2022-12-23T00:17:54.575Z,99945.78
2022-12-23T00:20:22.227Z,99949.47
2022-12-23T00:23:07.815Z,99946.59
2022-12-23T00:25:42.330Z,99945.38
2022-12-23T00:28:12.208Z,99948.03
2022-12-23T00:30:45.792Z,99949.25
2022-12-23T00:33:13.515Z,99952.72
2022-12-23T00:35:41.085Z,99951.50
2022-12-23T00:38:08.643Z,99950.09
2022-12-23T00:40:55.283Z,99956.41
2022-12-23T00:43:22.879Z,99952.34
2022-12-23T00:45:50.570Z,99957.22
2022-12-23T00:48:35.921Z,99949.06
2022-12-23T00:51:03.468Z,99951.09
2022-12-23T00:53:31.127Z,99948.84
2022-12-23T00:56:00.049Z,99959.28
2022-12-23T00:58:27.665Z,99954.97
2022-12-23T01:01:12.967Z,99951.13
2022-12-23T01:03:58.073Z,99954.97
2022-12-23T01:06:25.575Z,99950.91
2022-12-23T01:08:53.072Z,99946.59
2022-12-23T01:11:21.964Z,99948.84
2022-12-23T01:13:49.502Z,99946.59
2022-12-23T01:16:17.999Z,99950.25
2022-12-23T01:18:45.880Z,99948.25
2022-12-23T01:21:13.598Z,99946.41
2022-12-23T01:23:41.390Z,99945.78
2022-12-23T01:26:09.315Z,99943.34
2022-12-23T01:28:38.232Z,99944.16
2022-12-23T01:31:07.213Z,99942.53
2022-12-23T01:33:34.993Z,99951.31
2022-12-23T01:36:03.619Z,99951.91
2022-12-23T01:38:31.346Z,99950.06
2022-12-23T01:40:59.244Z,99950.69
2022-12-23T01:43:46.160Z,99953.16
2022-12-23T01:46:13.877Z,99963.78
2022-12-23T01:48:43.087Z,99956.41
2022-12-23T01:51:14.803Z,99956.00
2022-12-23T01:53:47.041Z,99956.81
2022-12-23T01:56:17.983Z,99954.75
2022-12-23T01:58:51.407Z,99960.28
2022-12-23T02:01:37.399Z,99957.41
2022-12-23T02:04:07.326Z,99958.84
2022-12-23T02:06:55.345Z,99949.47
2022-12-23T02:09:25.748Z,99946.19
2022-12-23T02:12:21.309Z,99942.50
2022-12-23T02:15:24.312Z,99945.97
2022-12-23T02:18:04.693Z,99950.88
2022-12-23T02:20:59.522Z,99948.63
2022-12-23T02:23:59.318Z,99949.88
2022-12-23T02:26:54.476Z,99955.59
2022-12-23T02:29:52.195Z,99954.34
2022-12-23T02:32:25.780Z,99945.38
2022-12-23T02:34:56.591Z,99943.31
2022-12-23T02:37:33.275Z,99944.97
2022-12-23T02:40:07.976Z,99950.28
2022-12-23T02:42:39.697Z,99948.44
2022-12-23T02:45:12.778Z,99953.13
2022-12-23T02:47:45.759Z,99959.25
2022-12-23T02:50:19.336Z,99968.69
2022-12-23T02:52:50.739Z,99965.81
2022-12-23T02:55:23.148Z,99971.94
2022-12-23T02:57:54.924Z,99973.56
2022-12-23T03:00:23.547Z,99967.25
2022-12-23T03:02:52.619Z,99978.03
2022-12-23T03:05:28.595Z,99971.09
2022-12-23T03:08:02.476Z,99971.72
2022-12-23T03:10:40.289Z,99980.91
2022-12-23T03:13:19.266Z,99982.97
2022-12-23T03:15:53.769Z,99983.78
2022-12-23T03:18:34.353Z,99989.09
2022-12-23T03:21:09.063Z,99990.28
2022-12-23T03:23:41.730Z,99993.16
2022-12-23T03:26:15.092Z,99997.03
2022-12-23T03:28:48.263Z,99997.66
2022-12-23T03:31:21.315Z,100002.97
2022-12-23T03:33:55.436Z,100002.75
2022-12-23T03:36:26.864Z,100008.69
2022-12-23T03:38:56.801Z,100007.03
2022-12-23T03:41:34.756Z,100009.91
2022-12-23T03:44:07.716Z,100012.97
2022-12-23T03:46:39.226Z,100002.97
2022-12-23T03:49:12.956Z,100007.03
2022-12-23T03:51:47.401Z,100004.19
2022-12-23T03:54:19.961Z,99993.16
2022-12-23T03:56:52.123Z,99998.06
2022-12-23T03:59:24.849Z,99994.59
2022-12-23T04:02:05.655Z,100000.09
2022-12-23T04:04:50.671Z,99989.88
2022-12-23T04:07:22.938Z,100000.09
2022-12-23T04:09:52.909Z,100006.63
2022-12-23T04:12:23.601Z,100007.44
2022-12-23T04:14:51.945Z,100009.50
2022-12-23T04:17:20.340Z,100004.38
2022-12-23T04:19:50.751Z,99998.06
2022-12-23T04:22:18.320Z,100004.19
2022-12-23T04:24:45.826Z,100008.91
2022-12-23T04:27:14.866Z,100007.88
2022-12-23T04:29:43.151Z,99999.28
2022-12-23T04:32:11.284Z,100002.16
2022-12-23T04:34:38.856Z,100010.72
2022-12-23T04:37:07.713Z,100009.50
2022-12-23T04:39:35.251Z,100018.06
2022-12-23T04:42:02.755Z,100023.59
2022-12-23T04:44:30.292Z,100031.31
2022-12-23T04:46:58.032Z,100027.44
2022-12-23T04:49:25.640Z,100039.69
2022-12-23T04:51:53.173Z,100037.63
2022-12-23T04:54:22.083Z,100037.22
2022-12-23T04:56:49.620Z,100032.13
2022-12-23T04:59:17.433Z,100032.53
2022-12-23T05:01:45.097Z,100027.00
2022-12-23T05:04:14.122Z,100037.19
2022-12-23T05:06:41.697Z,100038.03
2022-12-23T05:09:09.517Z,100038.38
2022-12-23T05:11:42.046Z,100044.09
2022-12-23T05:14:10.687Z,100045.75
2022-12-23T05:16:38.812Z,100048.41
2022-12-23T05:19:06.467Z,100038.63
2022-12-23T05:21:34.253Z,100049.47
2022-12-23T05:24:01.758Z,100048.25
2022-12-23T05:26:29.336Z,100049.88
2022-12-23T05:28:58.153Z,100047.84
2022-12-23T05:31:25.767Z,100055.81
2022-12-23T05:33:53.351Z,100048.25
2022-12-23T05:36:20.994Z,100053.94
2022-12-23T05:38:48.869Z,100047.81
2022-12-23T05:41:17.400Z,100052.31
2022-12-23T05:43:44.903Z,100054.75
2022-12-23T05:46:13.861Z,100062.50
2022-12-23T05:48:41.459Z,100069.28
2022-12-23T05:51:09.008Z,100082.72
2022-12-23T05:53:36.605Z,100085.00
2022-12-23T05:56:05.861Z,100089.03
2022-12-23T05:58:33.505Z,100090.44
2022-12-23T06:01:02.447Z,100099.06
2022-12-23T06:03:31.619Z,100095.13
2022-12-23T06:05:59.316Z,100092.75
2022-12-23T06:08:26.877Z,100087.38
2022-12-23T06:10:54.404Z,100092.84
2022-12-23T06:13:21.935Z,100093.91
2022-12-23T06:15:49.588Z,100093.09
2022-12-23T06:18:17.084Z,100095.31
2022-12-23T06:20:48.128Z,100093.94
2022-12-23T06:23:15.677Z,100093.91
2022-12-23T06:25:43.231Z,100098.97
2022-12-23T06:28:10.782Z,100097.94
2022-12-23T06:30:38.310Z,100101.47
2022-12-23T06:33:05.877Z,100111.84
2022-12-23T06:35:33.489Z,100111.00
2022-12-23T06:38:02.392Z,100104.81
2022-12-23T06:40:29.960Z,100111.00
2022-12-23T06:42:57.512Z,100118.91
2022-12-23T06:45:25.070Z,100114.66
2022-12-23T06:47:52.638Z,100112.25
2022-12-23T06:50:20.555Z,100107.72
2022-12-23T06:52:48.944Z,100108.13
2022-12-23T06:55:18.098Z,100112.25
2022-12-23T06:57:45.886Z,100118.78
2022-12-23T07:00:14.926Z,100126.31
2022-12-23T07:02:42.579Z,100113.88
2022-12-23T07:05:10.627Z,100113.44
2022-12-23T07:07:38.107Z,100110.38
2022-12-23T07:10:06.791Z,100111.78
2022-12-23T07:12:35.731Z,100120.34
2022-12-23T07:15:03.448Z,100124.44
2022-12-23T07:17:31.309Z,100124.25
2022-12-23T07:19:59.377Z,100125.22
2022-12-23T07:22:26.894Z,100139.97
2022-12-23T07:24:54.453Z,100133.22
2022-12-23T07:27:22.075Z,100138.78
2022-12-23T07:29:50.943Z,100143.66
2022-12-23T07:32:18.540Z,100144.88
2022-12-23T07:34:46.041Z,100142.88
2022-12-23T07:37:13.567Z,100142.03
2022-12-23T07:39:41.080Z,100147.75
2022-12-23T07:42:42.901Z,100151.00
2022-12-23T07:44:57.534Z,100165.06
2022-12-23T07:47:25.190Z,100180.16
2022-12-23T07:49:52.739Z,100185.28
2022-12-23T07:52:20.544Z,100185.88
2022-12-23T07:54:48.075Z,100183.00
2022-12-23T07:57:15.655Z,100177.94
2022-12-23T07:59:43.146Z,100187.09
2022-12-23T08:02:12.399Z,100191.44
2022-12-23T08:04:45.781Z,100177.53
2022-12-23T08:07:13.927Z,100174.66
2022-12-23T08:09:41.505Z,100184.28
2022-12-23T08:12:09.067Z,100181.19
2022-12-23T08:14:36.769Z,100183.63
2022-12-23T08:17:04.358Z,100187.31
2022-12-23T08:19:33.382Z,100184.88
2022-12-23T08:22:00.917Z,100190.97
2022-12-23T08:24:28.446Z,100195.09
2022-12-23T08:26:55.991Z,100191.22
2022-12-23T08:29:23.505Z,100190.75
2022-12-23T08:31:51.641Z,100197.75
2022-12-23T08:34:19.297Z,100196.53
2022-12-23T08:36:48.191Z,100200.50
2022-12-23T08:39:15.912Z,100199.31
2022-12-23T08:41:45.789Z,100199.72
2022-12-23T08:44:13.992Z,100204.19
2022-12-23T08:46:42.338Z,100206.00
2022-12-23T08:49:10.549Z,100216.41
2022-12-23T08:51:38.767Z,100219.72
2022-12-23T08:54:07.687Z,100211.38
2022-12-23T08:56:37.392Z,100222.59
2022-12-23T08:59:05.611Z,100228.13
2022-12-23T09:01:35.589Z,100227.25
2022-12-23T09:04:04.467Z,100228.72
2022-12-23T09:06:35.808Z,100236.91
2022-12-23T09:09:03.650Z,100242.44
2022-12-23T09:11:32.597Z,100247.53
2022-12-23T09:14:01.406Z,100249.19
2022-12-23T09:16:30.064Z,100251.63
2022-12-23T09:18:57.882Z,100249.63
2022-12-23T09:21:25.997Z,100247.09
2022-12-23T09:23:53.849Z,100251.22
2022-12-23T09:26:23.620Z,100248.53
2022-12-23T09:28:53.156Z,100248.31
2022-12-23T09:31:21.510Z,100251.63
2022-12-23T09:33:50.809Z,100258.16
2022-12-23T09:36:18.784Z,100252.28
2022-12-23T09:38:46.677Z,100243.47
2022-12-23T09:41:27.075Z,100251.19
2022-12-23T09:44:14.168Z,100254.91
2022-12-23T09:46:48.796Z,100261.63
2022-12-23T09:49:18.614Z,100258.34
2022-12-23T09:51:47.413Z,100257.09
2022-12-23T09:54:18.803Z,100265.06
2022-12-23T09:56:52.318Z,100269.59
2022-12-23T09:59:37.070Z,100267.94
2022-12-23T10:02:19.692Z,100262.63
2022-12-23T10:04:57.910Z,100252.78
2022-12-23T10:07:32.944Z,100247.09
2022-12-23T10:10:07.432Z,100243.22
2022-12-23T10:12:40.428Z,100242.81
2022-12-23T10:15:31.891Z,100234.69
2022-12-23T10:18:05.032Z,100242.66
2022-12-23T10:20:40.306Z,100239.41
2022-12-23T10:23:15.726Z,100241.00
2022-12-23T10:25:50.432Z,100239.00
2022-12-23T10:28:18.740Z,100237.56
2022-12-23T10:31:23.828Z,100240.22
2022-12-23T10:33:55.613Z,100243.31
2022-12-23T10:36:34.286Z,100246.34
2022-12-23T10:39:09.287Z,100261.09
2022-12-23T10:41:45.626Z,100251.09
2022-12-23T10:44:37.002Z,100252.94
2022-12-23T10:47:17.567Z,100248.47
2022-12-23T10:50:02.362Z,100251.59
2022-12-23T10:52:33.323Z,100237.50
2022-12-23T10:55:00.919Z,100233.41
2022-12-23T10:57:30.251Z,100246.91
2022-12-23T10:59:58.353Z,100238.75
2022-12-23T11:02:48.216Z,100240.78
2022-12-23T11:05:18.702Z,100246.94
2022-12-23T11:07:47.682Z,100246.53
2022-12-23T11:10:19.354Z,100244.06
2022-12-23T11:12:49.441Z,100251.63
2022-12-23T11:15:29.890Z,100251.63
2022-12-23T11:18:06.572Z,100255.72
2022-12-23T11:20:35.316Z,100253.50
2022-12-23T11:23:04.720Z,100251.69
2022-12-23T11:25:35.743Z,100250.25
2022-12-23T11:28:08.741Z,100253.31
2022-12-23T11:30:39.711Z,100254.31
2022-12-23T11:33:21.910Z,100257.41
2022-12-23T11:36:01.915Z,100258.63
2022-12-23T11:38:29.750Z,100249.47
2022-12-23T11:40:57.897Z,100242.69
2022-12-23T11:43:27.500Z,100239.88
2022-12-23T11:46:18.033Z,100240.06
2022-12-23T11:48:52.865Z,100239.22
2022-12-23T11:51:27.602Z,100231.44
2022-12-23T11:54:00.758Z,100231.41
2022-12-23T11:56:30.060Z,100240.81
2022-12-23T11:59:06.659Z,100242.06
2022-12-23T12:01:34.406Z,100241.25
2022-12-23T12:04:08.812Z,100239.41
2022-12-23T12:06:42.645Z,100236.75
2022-12-23T12:09:13.843Z,100233.47
2022-12-23T12:11:47.762Z,100234.69
2022-12-23T12:14:22.856Z,100236.38
2022-12-23T12:16:59.434Z,100235.97
2022-12-23T12:19:32.258Z,100240.47
2022-12-23T12:22:05.242Z,100229.03
2022-12-23T12:24:37.793Z,100221.66
2022-12-23T12:27:07.918Z,100216.75
2022-12-23T12:29:40.761Z,100209.41
2022-12-23T12:32:16.582Z,100208.97
2022-12-23T12:34:52.826Z,100209.38
2022-12-23T12:37:29.099Z,100202.22
2022-12-23T12:40:01.141Z,100196.50
2022-12-23T12:42:34.229Z,100179.97
2022-12-23T12:45:14.372Z,100176.31
2022-12-23T12:47:59.917Z,100168.13
2022-12-23T12:50:35.448Z,100175.09
2022-12-23T12:53:12.966Z,100177.53
2022-12-23T12:55:43.330Z,100175.09
2022-12-23T12:58:16.448Z,100174.06
2022-12-23T13:00:55.042Z,100176.31
2022-12-23T13:03:34.344Z,100178.13
2022-12-23T13:06:13.936Z,100175.06
2022-12-23T13:08:55.095Z,100171.41
2022-12-23T13:11:31.124Z,100175.50
2022-12-23T13:14:07.151Z,100183.66
2022-12-23T13:16:45.733Z,100193.09
2022-12-23T13:19:27.171Z,100193.09
2022-12-23T13:22:02.557Z,100185.91
2022-12-23T13:24:37.622Z,100196.56
2022-12-23T13:27:12.104Z,100195.94
2022-12-23T13:30:01.954Z,100188.56
2022-12-23T13:32:47.181Z,100187.56
2022-12-23T13:35:32.098Z,100184.09
2022-12-23T13:38:12.860Z,100180.78
2022-12-23T13:40:48.546Z,100184.09
2022-12-23T13:43:19.858Z,100189.00
2022-12-23T13:45:48.615Z,100186.13
2022-12-23T13:48:31.774Z,100183.66
2022-12-23T13:51:05.129Z,100178.97
2022-12-23T13:53:49.118Z,100182.44
2022-12-23T13:56:26.887Z,100173.47
2022-12-23T13:58:55.164Z,100183.69
2022-12-23T14:01:34.728Z,100178.78
2022-12-23T14:04:35.099Z,100181.63
2022-12-23T14:07:06.012Z,100182.88
2022-12-23T14:09:38.206Z,100180.00
2022-12-23T14:12:13.394Z,100173.25
2022-12-23T14:14:48.355Z,100176.31
2022-12-23T14:17:25.052Z,100177.97
2022-12-23T14:20:04.053Z,100172.41
2022-12-23T14:22:51.920Z,100169.38
2022-12-23T14:25:46.529Z,100175.06
2022-12-23T14:28:29.449Z,100164.44
2022-12-23T14:30:57.162Z,100164.44
2022-12-23T14:33:27.071Z,100155.03
2022-12-23T14:36:13.846Z,100153.63
2022-12-23T14:38:41.627Z,100154.22
2022-12-23T14:41:26.321Z,100150.53
2022-12-23T14:43:59.509Z,100146.06
2022-12-23T14:46:55.344Z,100147.28
2022-12-23T14:49:40.129Z,100144.44
2022-12-23T14:52:50.837Z,100148.69
2022-12-23T14:55:43.984Z,100162.00
2022-12-23T14:58:29.980Z,100157.09
2022-12-23T15:01:03.805Z,100153.19
2022-12-23T15:03:35.641Z,100156.66
2022-12-23T15:06:08.058Z,100167.72
2022-12-23T15:08:39.683Z,100166.72
2022-12-23T15:11:10.262Z,100166.50
2022-12-23T15:13:39.446Z,100164.44
2022-12-23T15:16:07.835Z,100158.13
2022-12-23T15:18:35.493Z,100159.53
2022-12-23T15:21:10.649Z,100167.31
2022-12-23T15:23:38.234Z,100167.72
2022-12-23T15:26:06.063Z,100167.50
2022-12-23T15:28:38.477Z,100164.44
2022-12-23T15:31:17.026Z,100163.63
2022-12-23T15:34:05.364Z,100167.31
2022-12-23T15:36:36.397Z,100155.66
2022-12-23T15:39:09.709Z,100168.09
2022-12-23T15:41:43.496Z,100160.75
2022-12-23T15:44:15.193Z,100168.72
2022-12-23T15:46:44.413Z,100158.91
2022-12-23T15:49:12.926Z,100153.38
2022-12-23T15:54:36.611Z,100148.69
2022-12-23T15:57:05.749Z,100149.28
2022-12-23T15:59:37.828Z,100150.13
2022-12-23T16:02:49.685Z,100144.00
2022-12-23T16:05:06.111Z,100147.88
2022-12-23T16:07:36.075Z,100138.66
2022-12-23T16:10:12.594Z,100143.97
2022-12-23T16:12:41.398Z,100136.00
2022-12-23T16:15:21.734Z,100147.28
2022-12-23T16:17:50.619Z,100139.91
2022-12-23T16:20:22.927Z,100140.13
2022-12-23T16:22:54.358Z,100137.03
2022-12-23T16:25:25.343Z,100133.56
2022-12-23T16:27:57.337Z,100135.81
2022-12-23T16:30:30.582Z,100129.88
2022-12-23T16:33:02.222Z,100119.88
2022-12-23T16:35:34.165Z,100110.25
2022-12-23T16:38:12.818Z,100111.25
2022-12-23T16:40:40.525Z,100105.34
2022-12-23T16:43:08.284Z,100097.78
2022-12-23T16:45:37.407Z,100105.13
2022-12-23T16:48:12.234Z,100098.19
2022-12-23T16:50:39.795Z,100092.03
2022-12-23T16:53:07.373Z,100086.31
2022-12-23T16:55:34.911Z,100084.06
2022-12-23T16:58:02.445Z,100081.00
2022-12-23T17:00:29.977Z,100089.16
2022-12-23T17:02:58.000Z,100085.09
2022-12-23T17:05:27.015Z,100084.47
2022-12-23T17:07:54.696Z,100086.50
2022-12-23T17:10:22.296Z,100089.97
2022-12-23T17:12:50.973Z,100083.25
2022-12-23T17:15:20.752Z,100074.47
2022-12-23T17:17:50.037Z,100086.31
2022-12-23T17:20:18.536Z,100085.50
2022-12-23T17:22:51.813Z,100075.69
2022-12-23T17:25:26.274Z,100081.81
2022-12-23T17:27:55.617Z,100077.72
2022-12-23T17:30:25.606Z,100078.34
2022-12-23T17:32:56.284Z,100081.00
2022-12-23T17:35:24.476Z,100083.25
2022-12-23T17:37:54.044Z,100085.69
2022-12-23T17:40:21.627Z,100089.16
2022-12-23T17:42:49.463Z,100085.91
2022-12-23T17:45:25.160Z,100081.00
2022-12-23T17:47:52.709Z,100082.59
2022-12-23T17:50:21.645Z,100078.53
2022-12-23T17:52:49.563Z,100085.91
2022-12-23T17:55:21.309Z,100083.66
2022-12-23T17:57:49.131Z,100085.91
2022-12-23T18:00:26.567Z,100087.13
2022-12-23T18:02:59.206Z,100081.81
2022-12-23T18:05:28.488Z,100079.16
2022-12-23T18:07:58.159Z,100079.56
2022-12-23T18:10:29.997Z,100078.75
2022-12-23T18:13:00.311Z,100083.84
2022-12-23T18:15:33.557Z,100089.16
2022-12-23T18:18:01.173Z,100083.00
2022-12-23T18:20:29.053Z,100091.38
2022-12-23T18:22:59.133Z,100094.63
2022-12-23T18:25:28.247Z,100098.13
2022-12-23T18:27:55.802Z,100095.25
2022-12-23T18:30:23.503Z,100099.13
2022-12-23T18:32:51.059Z,100092.41
2022-12-23T18:35:27.877Z,100096.06
2022-12-23T18:37:55.605Z,100097.13
2022-12-23T18:40:26.768Z,100096.50
2022-12-23T18:42:59.817Z,100091.38
2022-12-23T18:45:35.147Z,100093.84
2022-12-23T18:48:03.884Z,100095.28
2022-12-23T18:50:32.394Z,100097.75
2022-12-23T18:53:00.202Z,100098.34
2022-12-23T18:55:30.156Z,100095.28
2022-12-23T18:57:58.957Z,100095.69
2022-12-23T19:00:30.367Z,100093.66
2022-12-23T19:02:58.248Z,100090.38
2022-12-23T19:05:29.140Z,100086.72
2022-12-23T19:07:58.825Z,100090.38
2022-12-23T19:10:28.688Z,100096.09
2022-12-23T19:12:56.435Z,100096.94
2022-12-23T19:15:24.615Z,100104.25
2022-12-23T19:17:53.700Z,100097.75
2022-12-23T19:20:22.039Z,100103.84
2022-12-23T19:22:50.014Z,100097.31
2022-12-23T19:25:19.829Z,100100.59
2022-12-23T19:27:48.061Z,100101.00
2022-12-23T19:30:17.139Z,100109.56
2022-12-23T19:32:45.013Z,100104.25
2022-12-23T19:35:15.007Z,100098.94
2022-12-23T19:37:43.001Z,100103.84
2022-12-23T19:40:11.676Z,100106.31
2022-12-23T19:42:39.423Z,100108.75
2022-12-23T19:45:08.850Z,100108.75
2022-12-23T19:47:36.881Z,100099.97
2022-12-23T19:50:06.561Z,100097.91
2022-12-23T19:52:35.791Z,100100.78
2022-12-23T19:55:03.626Z,100110.38
2022-12-23T19:57:31.432Z,100102.19
2022-12-23T19:59:59.007Z,100115.47
2022-12-23T20:02:26.533Z,100107.91
2022-12-23T20:04:54.058Z,100106.28
2022-12-23T20:07:21.625Z,100106.47
2022-12-23T20:09:50.480Z,100106.84
2022-12-23T20:12:17.999Z,100110.94
2022-12-23T20:14:45.540Z,100115.03
2022-12-23T20:17:13.051Z,100120.53
2022-12-23T20:19:45.851Z,100116.22
2022-12-23T20:22:14.066Z,100119.31
2022-12-23T20:24:41.674Z,100113.16
2022-12-23T20:27:12.501Z,100118.47
2022-12-23T20:29:41.527Z,100116.84
2022-12-23T20:32:09.129Z,100112.31
2022-12-23T20:34:39.576Z,100122.94
2022-12-23T20:37:08.214Z,100127.84
2022-12-23T20:39:36.155Z,100122.47
2022-12-23T20:42:04.969Z,100125.72
2022-12-23T20:44:36.194Z,100120.00
2022-12-23T20:47:06.329Z,100120.00
2022-12-23T20:49:34.317Z,100113.88
2022-12-23T20:52:02.205Z,100117.56
2022-12-23T20:54:33.709Z,100122.84
2022-12-23T20:57:01.756Z,100124.88
2022-12-23T20:59:29.470Z,100116.28
2022-12-23T21:01:59.337Z,100124.44
2022-12-23T21:04:27.384Z,100115.00
2022-12-23T21:06:54.905Z,100126.44
2022-12-23T21:09:22.401Z,100119.50
2022-12-23T21:11:49.951Z,100120.66
2022-12-23T21:14:17.864Z,100121.84
2022-12-23T21:16:45.755Z,100116.13
2022-12-23T21:19:18.294Z,100119.97
2022-12-23T21:21:46.566Z,100120.72
2022-12-23T21:24:14.804Z,100124.41
2022-12-23T21:26:42.710Z,100120.72
2022-12-23T21:29:11.737Z,100118.09
2022-12-23T21:31:41.901Z,100124.34
2022-12-23T21:34:09.728Z,100128.59
2022-12-23T21:36:39.662Z,100124.34
2022-12-23T21:39:08.145Z,100130.63
2022-12-23T21:41:38.535Z,100121.44
2022-12-23T21:44:06.661Z,100124.50
2022-12-23T21:46:34.928Z,100124.94
2022-12-23T21:49:03.064Z,100128.00
2022-12-23T21:51:38.902Z,100133.69
2022-12-23T21:54:10.307Z,100131.84
2022-12-23T21:56:38.244Z,100137.22
2022-12-23T21:59:08.370Z,100137.16
2022-12-23T22:01:36.249Z,100136.53
2022-12-23T22:04:04.185Z,100143.28
2022-12-23T22:06:33.728Z,100138.09
2022-12-23T22:09:01.249Z,100142.34
2022-12-23T22:11:32.241Z,100141.19
2022-12-23T22:14:02.995Z,100144.03
2022-12-23T22:16:32.255Z,100137.09
2022-12-23T22:19:01.630Z,100141.78
2022-12-23T22:21:31.729Z,100143.22
2022-12-23T22:24:00.087Z,100138.69
2022-12-23T22:26:30.880Z,100147.31
2022-12-23T22:29:00.635Z,100150.97
2022-12-23T22:31:32.741Z,100148.06
2022-12-23T22:34:00.316Z,100147.25
2022-12-23T22:36:27.933Z,100147.63
2022-12-23T22:38:57.581Z,100152.53
2022-12-23T22:41:27.802Z,100147.97
2022-12-23T22:43:57.111Z,100157.75
2022-12-23T22:46:25.357Z,100160.59
2022-12-23T22:48:53.584Z,100159.38
2022-12-23T22:51:22.933Z,100158.59
2022-12-23T22:53:50.553Z,100158.59
2022-12-23T22:56:19.505Z,100165.50
2022-12-23T22:58:47.098Z,100165.50
2022-12-23T23:01:22.260Z,100154.13
2022-12-23T23:03:51.000Z,100157.00
2022-12-23T23:06:18.815Z,100159.81
2022-12-23T23:08:46.388Z,100169.59
2022-12-23T23:11:13.958Z,100167.97
2022-12-23T23:13:41.514Z,100174.88
2022-12-23T23:16:09.269Z,100173.22
2022-12-23T23:18:39.304Z,100168.28
2022-12-23T23:21:06.932Z,100173.81
2022-12-23T23:23:34.716Z,100178.50
2022-12-23T23:26:02.285Z,100174.84
2022-12-23T23:28:29.840Z,100170.94
2022-12-23T23:31:23.745Z,100167.91
2022-12-23T23:33:46.964Z,100180.16
2022-12-23T23:36:15.586Z,100180.53
2022-12-23T23:38:43.164Z,100178.50
2022-12-23T23:41:10.807Z,100181.34
2022-12-23T23:43:38.376Z,100180.09
2022-12-23T23:46:05.950Z,100173.97
2022-12-23T23:48:33.512Z,100169.56
2022-12-23T23:51:06.555Z,100173.06
2022-12-23T23:53:34.427Z,100162.69
2022-12-23T23:56:03.781Z,100165.41
2022-12-23T23:58:31.435Z,100165.03
